createdAt,value
2023-03-06T00:02:03.492Z,1.90
2023-03-06T00:04:30.560Z,1.90
2023-03-06T00:06:57.672Z,1.90
2023-03-06T00:09:24.763Z,1.90
2023-03-06T00:11:51.861Z,1.90
2023-03-06T00:14:18.933Z,1.90
2023-03-06T00:16:45.999Z,1.90
2023-03-06T00:19:13.067Z,1.90
2023-03-06T00:21:40.825Z,1.90
2023-03-06T00:24:08.007Z,1.90
2023-03-06T00:26:36.595Z,1.90
2023-03-06T00:29:03.716Z,1.90
2023-03-06T00:31:30.853Z,1.90
2023-03-06T00:33:58.029Z,1.80
2023-03-06T00:36:25.333Z,1.90
2023-03-06T00:38:52.417Z,1.90
2023-03-06T00:41:19.497Z,1.80
2023-03-06T00:43:46.552Z,1.90
2023-03-06T00:46:13.942Z,1.80
2023-03-06T00:48:41.003Z,1.90
2023-03-06T00:51:08.125Z,1.80
2023-03-06T00:53:35.199Z,1.90
2023-03-06T00:56:02.357Z,1.80
2023-03-06T00:58:30.478Z,1.80
2023-03-06T01:00:57.566Z,1.90
2023-03-06T01:03:24.657Z,1.80
2023-03-06T01:05:52.962Z,1.80
2023-03-06T01:08:20.142Z,1.80
2023-03-06T01:10:47.571Z,1.80
2023-03-06T01:13:15.786Z,1.80
2023-03-06T01:15:42.877Z,1.80
2023-03-06T01:18:09.944Z,1.80
2023-03-06T01:20:37.014Z,1.80
2023-03-06T01:23:04.075Z,1.80
2023-03-06T01:25:32.171Z,1.80
2023-03-06T01:27:59.238Z,1.80
2023-03-06T01:30:26.971Z,1.80
2023-03-06T01:32:54.645Z,1.80
2023-03-06T01:35:21.800Z,1.80
2023-03-06T01:37:48.901Z,1.80
2023-03-06T01:40:16.086Z,1.80
2023-03-06T01:42:45.417Z,1.80
2023-03-06T01:45:13.448Z,1.80
2023-03-06T01:47:40.645Z,1.80
2023-03-06T01:50:08.403Z,1.80
2023-03-06T01:52:37.529Z,1.70
2023-03-06T01:55:05.211Z,1.80
2023-03-06T01:57:33.010Z,1.70
2023-03-06T02:00:02.386Z,1.80
2023-03-06T02:02:41.108Z,1.70
2023-03-06T02:05:08.446Z,1.80
2023-03-06T02:07:35.956Z,1.70
2023-03-06T02:10:03.262Z,1.70
2023-03-06T02:12:30.331Z,1.80
2023-03-06T02:14:57.387Z,1.70
2023-03-06T02:17:24.471Z,1.80
2023-03-06T02:20:00.630Z,1.70
2023-03-06T02:22:31.139Z,1.70
2023-03-06T02:25:03.486Z,1.70
2023-03-06T02:27:30.596Z,1.70
2023-03-06T02:29:57.645Z,1.70
2023-03-06T02:32:24.762Z,1.70
2023-03-06T02:34:52.998Z,1.70
2023-03-06T02:37:20.414Z,1.70
2023-03-06T02:39:48.499Z,1.70
2023-03-06T02:42:25.293Z,1.60
2023-03-06T02:44:54.202Z,1.60
2023-03-06T02:47:21.336Z,1.60
2023-03-06T02:49:48.404Z,1.60
2023-03-06T02:52:15.468Z,1.60
2023-03-06T02:54:42.568Z,1.60
2023-03-06T02:57:09.989Z,1.60
2023-03-06T02:59:37.364Z,1.60
2023-03-06T03:02:05.789Z,1.60
2023-03-06T03:04:34.489Z,1.60
2023-03-06T03:07:02.241Z,1.60
2023-03-06T03:09:29.503Z,1.60
2023-03-06T03:11:56.528Z,1.60
2023-03-06T03:14:26.190Z,1.60
2023-03-06T03:16:54.039Z,1.50
2023-03-06T03:19:21.108Z,1.60
2023-03-06T03:21:48.344Z,1.60
2023-03-06T03:24:16.605Z,1.60
2023-03-06T03:26:43.751Z,1.60
2023-03-06T03:29:15.182Z,1.60
2023-03-06T03:31:42.367Z,1.60
2023-03-06T03:34:09.711Z,1.60
2023-03-06T03:36:39.448Z,1.60
2023-03-06T03:39:08.423Z,1.60
2023-03-06T03:41:36.089Z,1.60
2023-03-06T03:44:06.753Z,1.50
2023-03-06T03:46:33.977Z,1.50
2023-03-06T03:49:02.629Z,1.50
2023-03-06T03:51:29.913Z,1.50
2023-03-06T03:53:58.672Z,1.50
2023-03-06T03:56:28.911Z,1.50
2023-03-06T03:59:03.865Z,1.50
2023-03-06T04:01:39.518Z,1.50
2023-03-06T04:04:07.291Z,1.50
2023-03-06T04:06:34.658Z,1.50
2023-03-06T04:09:01.890Z,1.50
2023-03-06T04:11:29.913Z,1.50
2023-03-06T04:13:57.107Z,1.50
2023-03-06T04:16:24.663Z,1.50
2023-03-06T04:18:51.991Z,1.50
2023-03-06T04:21:21.025Z,1.50
2023-03-06T04:23:48.142Z,1.50
2023-03-06T04:26:15.414Z,1.50
2023-03-06T04:28:43.308Z,1.50
2023-03-06T04:31:11.850Z,1.50
2023-03-06T04:33:39.145Z,1.50
2023-03-06T04:36:06.294Z,1.50
2023-03-06T04:38:33.981Z,1.50
2023-03-06T04:41:03.711Z,1.40
2023-03-06T04:43:30.727Z,1.40
2023-03-06T04:45:57.947Z,1.40
2023-03-06T04:48:25.006Z,1.40
2023-03-06T04:50:52.125Z,1.40
2023-03-06T04:53:21.254Z,1.40
2023-03-06T04:55:48.423Z,1.40
2023-03-06T04:58:15.592Z,1.40
2023-03-06T05:00:42.642Z,1.40
2023-03-06T05:03:09.686Z,1.40
2023-03-06T05:05:36.752Z,1.40
2023-03-06T05:08:03.835Z,1.40
2023-03-06T05:10:30.853Z,1.40
2023-03-06T05:12:57.937Z,1.40
2023-03-06T05:15:24.987Z,1.40
2023-03-06T05:17:52.246Z,1.40
2023-03-06T05:20:19.361Z,1.40
2023-03-06T05:22:46.408Z,1.40
2023-03-06T05:25:13.455Z,1.40
2023-03-06T05:27:40.492Z,1.40
2023-03-06T05:30:07.988Z,1.40
2023-03-06T05:32:35.799Z,1.40
2023-03-06T05:35:03.287Z,1.40
2023-03-06T05:37:30.371Z,1.40
2023-03-06T05:39:57.570Z,1.40
2023-03-06T05:42:25.992Z,1.40
2023-03-06T05:44:53.886Z,1.40
2023-03-06T05:47:20.886Z,1.40
2023-03-06T05:49:48.095Z,1.30
2023-03-06T05:52:17.374Z,1.30
2023-03-06T05:54:44.430Z,1.30
2023-03-06T05:57:11.504Z,1.30
2023-03-06T05:59:38.566Z,1.40
2023-03-06T06:02:05.779Z,1.30
2023-03-06T06:04:32.871Z,1.30
2023-03-06T06:07:00.458Z,1.30
2023-03-06T06:09:27.671Z,1.30
2023-03-06T06:11:55.425Z,1.40
2023-03-06T06:14:22.464Z,1.40
2023-03-06T06:16:49.552Z,1.40
2023-03-06T06:19:20.255Z,1.40
2023-03-06T06:21:47.860Z,1.40
2023-03-06T06:24:17.342Z,1.40
2023-03-06T06:26:44.584Z,1.40
2023-03-06T06:29:11.944Z,1.40
2023-03-06T06:31:39.140Z,1.50
2023-03-06T06:34:06.302Z,1.50
2023-03-06T06:36:33.355Z,1.50
2023-03-06T06:39:00.494Z,1.50
2023-03-06T06:41:42.725Z,1.50
2023-03-06T06:44:15.957Z,1.60
2023-03-06T06:49:34.136Z,1.60
2023-03-06T06:52:01.462Z,1.60
2023-03-06T06:54:28.511Z,1.60
2023-03-06T06:57:21.755Z,1.60
2023-03-06T06:59:49.235Z,1.60
2023-03-06T07:02:16.823Z,1.70
2023-03-06T07:05:00.689Z,1.70
2023-03-06T07:07:30.139Z,1.70
2023-03-06T07:09:57.229Z,1.70
2023-03-06T07:12:24.368Z,1.80
2023-03-06T07:14:51.382Z,1.80
2023-03-06T07:17:18.490Z,1.80
2023-03-06T07:19:45.532Z,1.80
2023-03-06T07:22:12.819Z,1.80
2023-03-06T07:24:39.849Z,1.90
2023-03-06T07:27:06.927Z,2.00
2023-03-06T07:29:34.486Z,2.00
2023-03-06T07:32:02.725Z,2.00
2023-03-06T07:34:29.781Z,2.00
2023-03-06T07:36:56.877Z,2.10
2023-03-06T07:39:23.973Z,2.10
2023-03-06T07:41:55.505Z,2.10
2023-03-06T07:44:22.662Z,2.10
2023-03-06T07:46:49.748Z,2.20
2023-03-06T07:49:16.977Z,2.20
2023-03-06T07:51:44.303Z,2.20
2023-03-06T07:54:11.412Z,2.30
2023-03-06T07:56:38.509Z,2.30
2023-03-06T07:59:05.551Z,2.30
2023-03-06T08:01:33.025Z,2.40
2023-03-06T08:04:01.863Z,2.40
2023-03-06T08:06:29.046Z,2.40
2023-03-06T08:08:56.731Z,2.50
2023-03-06T08:11:24.726Z,2.40
2023-03-06T08:13:52.940Z,2.50
2023-03-06T08:16:20.950Z,2.50
2023-03-06T08:18:47.977Z,2.50
2023-03-06T08:21:16.055Z,2.50
2023-03-06T08:23:43.138Z,2.50
2023-03-06T08:26:14.616Z,2.50
2023-03-06T08:28:41.939Z,2.50
2023-03-06T08:31:10.191Z,2.50
2023-03-06T08:33:37.330Z,2.60
2023-03-06T08:36:04.558Z,2.60
2023-03-06T08:38:31.619Z,2.60
2023-03-06T08:40:58.847Z,2.70
2023-03-06T08:43:25.849Z,2.70
2023-03-06T08:45:53.443Z,2.80
2023-03-06T08:48:20.826Z,2.80
2023-03-06T08:50:47.961Z,2.90
2023-03-06T08:53:16.122Z,3.00
2023-03-06T08:55:43.256Z,2.90
2023-03-06T08:58:10.355Z,2.90
2023-03-06T09:00:37.656Z,2.90
2023-03-06T09:03:04.801Z,3.00
2023-03-06T09:05:31.927Z,3.00
2023-03-06T09:07:58.990Z,3.00
2023-03-06T09:10:26.058Z,3.10
2023-03-06T09:12:54.800Z,3.00
2023-03-06T09:15:22.369Z,3.10
2023-03-06T09:17:51.735Z,3.10
2023-03-06T09:20:18.826Z,3.10
2023-03-06T09:22:46.870Z,3.20
2023-03-06T09:25:14.207Z,3.20
2023-03-06T09:27:41.263Z,3.30
2023-03-06T09:30:08.749Z,3.30
2023-03-06T09:32:35.933Z,3.40
2023-03-06T09:35:03.011Z,3.30
2023-03-06T09:37:30.111Z,3.40
2023-03-06T09:39:57.716Z,3.40
2023-03-06T09:42:24.730Z,3.40
2023-03-06T09:44:55.800Z,3.40
2023-03-06T09:47:42.244Z,3.40
2023-03-06T09:50:11.890Z,3.40
2023-03-06T09:53:04.039Z,3.50
2023-03-06T09:55:31.340Z,3.50
2023-03-06T09:58:37.010Z,3.60
2023-03-06T10:01:07.109Z,3.70
2023-03-06T10:03:39.386Z,3.70
2023-03-06T10:06:11.391Z,3.80
2023-03-06T10:08:38.434Z,3.90
2023-03-06T10:11:07.238Z,3.90
2023-03-06T10:13:38.581Z,4.00
2023-03-06T10:16:19.300Z,4.00
2023-03-06T10:18:46.391Z,4.00
2023-03-06T10:21:21.981Z,4.00
2023-03-06T10:23:53.804Z,4.00
2023-03-06T10:26:25.030Z,4.00
2023-03-06T10:29:00.130Z,4.00
2023-03-06T10:31:27.606Z,4.00
2023-03-06T10:34:03.970Z,4.00
2023-03-06T10:36:31.111Z,3.90
2023-03-06T10:38:58.393Z,3.90
2023-03-06T10:41:28.562Z,3.90
2023-03-06T10:44:19.170Z,3.90
2023-03-06T10:46:48.233Z,3.90
2023-03-06T10:49:27.941Z,3.90
2023-03-06T10:51:57.948Z,3.90
2023-03-06T10:54:24.983Z,4.00
2023-03-06T10:56:53.051Z,4.00
2023-03-06T10:59:22.857Z,4.00
2023-03-06T11:01:51.880Z,4.00
2023-03-06T11:04:26.581Z,3.90
2023-03-06T11:07:12.547Z,4.00
2023-03-06T11:09:39.725Z,4.00
2023-03-06T11:12:22.698Z,4.00
2023-03-06T11:15:06.691Z,4.00
2023-03-06T11:17:34.651Z,4.00
2023-03-06T11:20:08.621Z,4.00
2023-03-06T11:22:35.651Z,3.90
2023-03-06T11:25:02.984Z,4.00
2023-03-06T11:27:34.407Z,4.00
2023-03-06T11:30:05.918Z,4.10
2023-03-06T11:32:40.488Z,4.10
2023-03-06T11:35:12.213Z,4.20
2023-03-06T11:37:42.289Z,4.20
2023-03-06T11:40:13.222Z,4.20
2023-03-06T11:42:45.690Z,4.20
2023-03-06T11:45:20.476Z,4.10
2023-03-06T11:48:09.906Z,4.10
2023-03-06T11:50:38.711Z,4.00
2023-03-06T11:53:06.261Z,3.90
2023-03-06T11:55:39.245Z,3.90
2023-03-06T11:58:12.015Z,3.80
2023-03-06T12:00:45.474Z,3.80
2023-03-06T12:03:45.178Z,3.80
2023-03-06T12:06:24.400Z,3.70
2023-03-06T12:09:10.351Z,3.70
2023-03-06T12:11:53.888Z,3.70
2023-03-06T12:14:34.408Z,3.70
2023-03-06T12:17:13.315Z,3.70
2023-03-06T12:19:47.216Z,3.70
2023-03-06T12:22:14.417Z,3.70
2023-03-06T12:24:46.620Z,3.70
2023-03-06T12:27:23.038Z,3.80
2023-03-06T12:29:53.364Z,3.80
2023-03-06T12:32:21.176Z,3.90
2023-03-06T12:34:48.260Z,3.90
2023-03-06T12:37:15.309Z,4.00
2023-03-06T12:40:01.406Z,4.10
2023-03-06T12:42:28.498Z,4.10
2023-03-06T12:45:10.486Z,4.10
2023-03-06T12:47:44.604Z,4.10
2023-03-06T12:50:19.239Z,4.00
2023-03-06T12:52:46.391Z,4.00
2023-03-06T12:55:14.404Z,4.00
2023-03-06T12:57:41.928Z,3.90
2023-03-06T13:00:11.626Z,3.90
2023-03-06T13:03:11.374Z,3.90
2023-03-06T13:05:38.439Z,3.80
2023-03-06T13:08:14.720Z,3.80
2023-03-06T13:10:42.225Z,3.70
2023-03-06T13:13:29.487Z,3.70
2023-03-06T13:16:12.095Z,3.70
2023-03-06T13:18:42.165Z,3.70
2023-03-06T13:21:30.102Z,3.70
2023-03-06T13:24:03.371Z,3.70
2023-03-06T13:26:30.459Z,3.70
2023-03-06T13:28:58.489Z,3.80
2023-03-06T13:31:27.911Z,3.80
2023-03-06T13:33:56.618Z,3.80
2023-03-06T13:36:26.656Z,3.90
2023-03-06T13:38:57.938Z,3.90
2023-03-06T13:41:24.976Z,3.90
2023-03-06T13:43:55.677Z,3.90
2023-03-06T13:46:26.173Z,3.90
2023-03-06T13:49:05.429Z,3.80
2023-03-06T13:51:33.892Z,3.80
2023-03-06T13:54:09.374Z,3.80
2023-03-06T13:56:36.607Z,3.80
2023-03-06T13:59:10.539Z,3.80
2023-03-06T14:01:41.684Z,3.70
2023-03-06T14:04:27.760Z,3.70
2023-03-06T14:07:01.345Z,3.70
2023-03-06T14:09:40.911Z,3.70
2023-03-06T14:12:08.666Z,3.70
2023-03-06T14:14:38.810Z,3.70
2023-03-06T14:17:06.048Z,3.70
2023-03-06T14:19:36.128Z,3.60
2023-03-06T14:22:03.777Z,3.60
2023-03-06T14:24:33.320Z,3.60
2023-03-06T14:27:00.618Z,3.60
2023-03-06T14:29:28.155Z,3.70
2023-03-06T14:31:56.107Z,3.70
2023-03-06T14:34:24.070Z,3.80
2023-03-06T14:36:51.730Z,3.80
2023-03-06T14:39:38.128Z,3.80
2023-03-06T14:42:05.993Z,3.90
2023-03-06T14:44:33.095Z,3.90
2023-03-06T14:47:19.507Z,4.00
2023-03-06T14:49:46.810Z,4.00
2023-03-06T14:52:19.951Z,4.00
2023-03-06T14:54:47.041Z,4.00
2023-03-06T14:57:14.646Z,4.10
2023-03-06T14:59:43.168Z,4.10
2023-03-06T15:02:11.123Z,4.10
2023-03-06T15:04:42.001Z,4.10
2023-03-06T15:07:13.454Z,4.10
2023-03-06T15:09:41.650Z,4.00
2023-03-06T15:12:21.178Z,4.00
2023-03-06T15:14:58.571Z,4.00
2023-03-06T15:17:28.321Z,4.00
2023-03-06T15:19:56.488Z,3.90
2023-03-06T15:22:38.516Z,3.90
2023-03-06T15:25:18.295Z,3.90
2023-03-06T15:28:14.866Z,3.90
2023-03-06T15:30:41.932Z,4.00
2023-03-06T15:33:25.446Z,3.90
2023-03-06T15:35:57.158Z,4.00
2023-03-06T15:38:25.793Z,4.00
2023-03-06T15:40:59.663Z,3.90
2023-03-06T15:43:28.105Z,3.90
2023-03-06T15:45:57.560Z,3.90
2023-03-06T15:48:24.612Z,3.90
2023-03-06T15:50:51.784Z,3.90
2023-03-06T15:53:21.117Z,3.90
2023-03-06T15:55:48.364Z,3.90
2023-03-06T15:58:16.287Z,3.90
2023-03-06T16:00:43.486Z,3.90
2023-03-06T16:03:11.702Z,3.80
2023-03-06T16:05:38.913Z,3.80
2023-03-06T16:08:06.084Z,3.80
2023-03-06T16:10:33.903Z,3.80
2023-03-06T16:13:02.878Z,3.80
2023-03-06T16:15:30.497Z,3.80
2023-03-06T16:17:57.687Z,3.80
2023-03-06T16:20:25.377Z,3.80
2023-03-06T16:22:53.832Z,3.70
2023-03-06T16:25:21.672Z,3.70
2023-03-06T16:27:55.572Z,3.70
2023-03-06T16:30:22.878Z,3.70
2023-03-06T16:32:50.036Z,3.70
2023-03-06T16:35:18.393Z,3.70
2023-03-06T16:37:45.599Z,3.70
2023-03-06T16:40:18.887Z,3.70
2023-03-06T16:42:46.482Z,3.70
2023-03-06T16:45:13.811Z,3.70
2023-03-06T16:47:41.145Z,3.60
2023-03-06T16:50:12.542Z,3.60
2023-03-06T16:52:39.862Z,3.60
2023-03-06T16:55:06.996Z,3.60
2023-03-06T16:57:35.669Z,3.60
2023-03-06T17:00:02.945Z,3.50
2023-03-06T17:02:30.083Z,3.50
2023-03-06T17:04:57.292Z,3.50
2023-03-06T17:07:24.301Z,3.50
2023-03-06T17:09:51.342Z,3.50
2023-03-06T17:12:18.443Z,3.50
2023-03-06T17:14:45.579Z,3.40
2023-03-06T17:17:12.742Z,3.40
2023-03-06T17:19:41.827Z,3.40
2023-03-06T17:22:08.838Z,3.40
2023-03-06T17:24:36.172Z,3.40
2023-03-06T17:27:03.376Z,3.30
2023-03-06T17:29:30.470Z,3.30
2023-03-06T17:31:57.526Z,3.30
2023-03-06T17:34:24.736Z,3.30
2023-03-06T17:36:51.839Z,3.30
2023-03-06T17:39:19.703Z,3.30
2023-03-06T17:41:46.708Z,3.30
2023-03-06T17:44:16.142Z,3.30
2023-03-06T17:46:43.507Z,3.30
2023-03-06T17:49:10.597Z,3.30
2023-03-06T17:51:37.919Z,3.20
2023-03-06T17:54:05.023Z,3.30
2023-03-06T17:56:32.043Z,3.30
2023-03-06T17:59:00.155Z,3.20
2023-03-06T18:01:28.390Z,3.30
2023-03-06T18:03:55.511Z,3.30
2023-03-06T18:06:22.701Z,3.20
2023-03-06T18:08:52.369Z,3.20
2023-03-06T18:11:19.906Z,3.30
2023-03-06T18:13:47.015Z,3.20
2023-03-06T18:16:14.905Z,3.20
2023-03-06T18:18:41.906Z,3.20
2023-03-06T18:21:10.647Z,3.20
2023-03-06T18:23:38.941Z,3.20
2023-03-06T18:26:13.204Z,3.20
2023-03-06T18:28:44.539Z,3.20
2023-03-06T18:31:18.708Z,3.20
2023-03-06T18:33:49.206Z,3.20
2023-03-06T18:36:16.686Z,3.20
2023-03-06T18:38:45.474Z,3.20
2023-03-06T18:41:12.844Z,3.20
2023-03-06T18:43:39.889Z,3.20
2023-03-06T18:46:07.077Z,3.20
2023-03-06T18:48:34.174Z,3.20
2023-03-06T18:51:05.049Z,3.10
2023-03-06T18:53:32.254Z,3.20
2023-03-06T18:55:59.274Z,3.10
2023-03-06T18:58:26.330Z,3.10
2023-03-06T19:00:53.522Z,3.10
2023-03-06T19:03:20.564Z,3.20
2023-03-06T19:05:47.817Z,3.10
2023-03-06T19:08:15.194Z,3.10
2023-03-06T19:10:42.969Z,3.20
2023-03-06T19:13:10.107Z,3.10
2023-03-06T19:15:45.414Z,3.10
2023-03-06T19:18:12.733Z,3.10
2023-03-06T19:20:39.820Z,3.10
2023-03-06T19:23:06.863Z,3.10
2023-03-06T19:25:33.886Z,3.10
2023-03-06T19:28:00.912Z,3.10
2023-03-06T19:30:28.062Z,3.10
2023-03-06T19:32:56.397Z,3.10
2023-03-06T19:35:23.851Z,3.10
2023-03-06T19:37:52.104Z,3.00
2023-03-06T19:40:19.401Z,3.00
2023-03-06T19:42:46.559Z,3.10
2023-03-06T19:45:13.626Z,3.00
2023-03-06T19:47:40.688Z,3.00
2023-03-06T19:50:08.301Z,3.00
2023-03-06T19:52:36.376Z,3.00
2023-03-06T19:55:03.590Z,3.00
2023-03-06T19:57:30.696Z,3.00
2023-03-06T19:59:58.692Z,3.00
2023-03-06T20:02:26.473Z,3.00
2023-03-06T20:04:53.976Z,3.00
2023-03-06T20:07:21.287Z,3.00
2023-03-06T20:09:48.484Z,3.00
2023-03-06T20:12:15.599Z,3.00
2023-03-06T20:14:42.703Z,3.00
2023-03-06T20:17:09.771Z,3.00
2023-03-06T20:19:36.837Z,3.00
2023-03-06T20:22:03.904Z,2.90
2023-03-06T20:24:30.910Z,3.00
2023-03-06T20:26:59.383Z,3.00
2023-03-06T20:29:28.247Z,3.00
2023-03-06T20:31:55.951Z,3.00
2023-03-06T20:34:23.131Z,3.00
2023-03-06T20:36:50.335Z,2.90
2023-03-06T20:39:19.136Z,3.00
2023-03-06T20:41:46.712Z,2.90
2023-03-06T20:44:14.921Z,2.90
2023-03-06T20:46:42.047Z,2.90
2023-03-06T20:49:09.197Z,3.00
2023-03-06T20:51:38.930Z,2.90
2023-03-06T20:54:06.698Z,3.00
2023-03-06T20:56:34.200Z,3.00
2023-03-06T20:59:01.831Z,2.90
2023-03-06T21:01:29.701Z,3.00
2023-03-06T21:03:56.940Z,2.90
2023-03-06T21:06:24.024Z,2.90
2023-03-06T21:08:51.100Z,2.90
2023-03-06T21:11:18.140Z,2.90
2023-03-06T21:13:45.173Z,2.90
2023-03-06T21:16:13.431Z,2.90
2023-03-06T21:18:41.569Z,2.90
2023-03-06T21:21:09.164Z,2.90
2023-03-06T21:23:36.501Z,2.90
2023-03-06T21:26:03.713Z,2.90
2023-03-06T21:28:30.835Z,2.90
2023-03-06T21:31:00.994Z,2.90
2023-03-06T21:33:28.119Z,2.90
2023-03-06T21:35:55.390Z,2.90
2023-03-06T21:38:22.474Z,2.80
2023-03-06T21:40:49.538Z,2.90
2023-03-06T21:43:17.527Z,2.90
2023-03-06T21:45:45.002Z,2.80
2023-03-06T21:48:12.309Z,2.80
2023-03-06T21:50:39.515Z,2.80
2023-03-06T21:53:06.706Z,2.80
2023-03-06T21:55:33.781Z,2.80
2023-03-06T21:58:00.783Z,2.80
2023-03-06T22:00:27.768Z,2.80
2023-03-06T22:02:54.963Z,2.80
2023-03-06T22:05:22.047Z,2.80
2023-03-06T22:07:49.061Z,2.80
2023-03-06T22:10:16.132Z,2.80
2023-03-06T22:12:45.669Z,2.80
2023-03-06T22:15:12.732Z,2.80
2023-03-06T22:17:41.489Z,2.80
2023-03-06T22:20:09.051Z,2.80
2023-03-06T22:22:36.061Z,2.80
2023-03-06T22:25:04.822Z,2.80
2023-03-06T22:27:31.842Z,2.80
2023-03-06T22:29:58.893Z,2.80
2023-03-06T22:32:26.028Z,2.80
2023-03-06T22:34:53.185Z,2.80
2023-03-06T22:37:20.255Z,2.80
2023-03-06T22:39:47.572Z,2.80
2023-03-06T22:42:14.622Z,2.80
2023-03-06T22:44:41.612Z,2.70
2023-03-06T22:47:08.693Z,2.70
2023-03-06T22:49:35.764Z,2.70
2023-03-06T22:52:03.230Z,2.70
2023-03-06T22:54:30.299Z,2.70
2023-03-06T22:56:57.358Z,2.70
2023-03-06T22:59:24.437Z,2.70
2023-03-06T23:01:51.466Z,2.70
2023-03-06T23:04:18.540Z,2.70
2023-03-06T23:06:46.997Z,2.70
2023-03-06T23:09:15.833Z,2.70
2023-03-06T23:12:01.595Z,2.70
2023-03-06T23:14:49.632Z,2.70
2023-03-06T23:17:36.144Z,2.70
2023-03-06T23:20:21.893Z,2.70
2023-03-06T23:23:07.540Z,2.70
2023-03-06T23:25:44.310Z,2.70
2023-03-06T23:28:11.665Z,2.70
2023-03-06T23:30:39.113Z,2.60
2023-03-06T23:33:06.169Z,2.70
2023-03-06T23:35:33.642Z,2.70
2023-03-06T23:38:02.304Z,2.70
2023-03-06T23:40:30.650Z,2.60
2023-03-06T23:42:57.693Z,2.60
2023-03-06T23:45:24.737Z,2.60
2023-03-06T23:47:51.826Z,2.60
2023-03-06T23:50:19.066Z,2.60
2023-03-06T23:52:46.094Z,2.60
2023-03-06T23:55:13.131Z,2.60
2023-03-06T23:57:40.120Z,2.60
